createdAt,value
2023-07-15T00:04:20.713Z,100514.53
2023-07-15T00:09:28.984Z,100516.13
2023-07-15T00:14:31.822Z,100509.38
2023-07-15T00:19:35.396Z,100503.03
2023-07-15T00:24:39.588Z,100492.34
2023-07-15T00:29:42.417Z,100483.38
2023-07-15T00:34:45.279Z,100470.03
2023-07-15T00:39:49.494Z,100451.59
2023-07-15T00:44:52.121Z,100454.81
2023-07-15T00:49:56.686Z,100460.91
2023-07-15T00:54:59.621Z,100464.88
2023-07-15T01:00:05.787Z,100447.75
2023-07-15T01:05:11.628Z,100442.41
2023-07-15T01:10:14.406Z,100429.38
2023-07-15T01:15:17.256Z,100426.66
2023-07-15T01:20:25.903Z,100418.84
2023-07-15T01:25:31.508Z,100411.63
2023-07-15T01:30:34.270Z,100402.88
2023-07-15T01:35:37.313Z,100409.56
2023-07-15T01:40:41.692Z,100400.78
2023-07-15T01:45:45.225Z,100393.66
2023-07-15T01:50:49.271Z,100392.44
2023-07-15T01:55:55.104Z,100384.38
2023-07-15T02:00:57.945Z,100376.44
2023-07-15T02:06:00.795Z,100358.56
2023-07-15T02:11:06.195Z,100356.59
2023-07-15T02:16:09.057Z,100352.28
2023-07-15T02:21:11.828Z,100338.00
2023-07-15T02:26:16.280Z,100332.03
2023-07-15T02:31:19.229Z,100335.38
2023-07-15T02:36:22.081Z,100323.09
2023-07-15T02:41:26.866Z,100311.53
2023-07-15T02:46:29.729Z,100312.91
2023-07-15T02:51:32.530Z,100296.22
2023-07-15T02:56:36.685Z,100301.47
2023-07-15T03:01:39.696Z,100293.56
2023-07-15T03:06:43.299Z,100290.19
2023-07-15T03:11:47.612Z,100281.88
2023-07-15T03:16:50.455Z,100284.50
2023-07-15T03:21:53.445Z,100290.13
2023-07-15T03:26:57.651Z,100279.34
2023-07-15T03:32:00.495Z,100269.69
2023-07-15T03:37:03.671Z,100275.41
2023-07-15T03:42:08.657Z,100271.56
2023-07-15T03:47:11.558Z,100265.50
2023-07-15T03:52:14.649Z,100259.22
2023-07-15T03:57:18.737Z,100259.72
2023-07-15T04:02:21.554Z,100254.06
2023-07-15T04:07:24.380Z,100265.28
2023-07-15T04:12:28.517Z,100258.00
2023-07-15T04:17:31.291Z,100254.53
2023-07-15T04:22:38.225Z,100248.59
2023-07-15T04:27:42.927Z,100253.16
2023-07-15T04:32:45.814Z,100254.34
2023-07-15T04:37:48.542Z,100255.00
2023-07-15T04:42:52.654Z,100254.66
2023-07-15T04:47:55.508Z,100244.28
2023-07-15T04:52:58.296Z,100231.47
2023-07-15T04:58:02.485Z,100230.34
2023-07-15T05:03:07.245Z,100230.38
2023-07-15T05:08:14.950Z,100225.41
2023-07-15T05:13:19.488Z,100227.69
2023-07-15T05:18:22.281Z,100226.72
2023-07-15T05:23:25.748Z,100232.44
2023-07-15T05:28:31.830Z,100238.03
2023-07-15T05:33:34.769Z,100229.25
2023-07-15T05:38:43.784Z,100226.75
2023-07-15T05:43:47.973Z,100238.03
2023-07-15T05:48:50.769Z,100230.16
2023-07-15T05:53:53.564Z,100228.63
2023-07-15T05:58:57.725Z,100238.59
2023-07-15T06:04:00.732Z,100237.53
2023-07-15T06:09:03.633Z,100221.84
2023-07-15T06:14:10.473Z,100229.16
2023-07-15T06:19:13.343Z,100225.84
2023-07-15T06:24:16.229Z,100216.75
2023-07-15T06:29:20.497Z,100228.97
2023-07-15T06:34:23.358Z,100215.78
2023-07-15T06:39:26.221Z,100216.66
2023-07-15T06:44:30.490Z,100214.06
2023-07-15T06:49:33.383Z,100209.19
2023-07-15T06:54:36.256Z,100203.66
2023-07-15T06:59:40.629Z,100215.75
2023-07-15T07:04:43.477Z,100213.19
2023-07-15T07:09:46.284Z,100203.41
2023-07-15T07:14:51.500Z,100201.31
2023-07-15T07:19:54.390Z,100200.34
2023-07-15T07:24:57.813Z,100185.94
2023-07-15T07:30:02.049Z,100188.03
2023-07-15T07:35:05.304Z,100188.31
2023-07-15T07:40:10.780Z,100177.91
2023-07-15T07:45:16.305Z,100175.66
2023-07-15T07:50:19.065Z,100181.63
2023-07-15T07:55:21.827Z,100177.19
2023-07-15T08:00:25.952Z,100176.66
2023-07-15T08:05:28.727Z,100171.69
2023-07-15T08:10:31.721Z,100167.16
2023-07-15T08:15:36.346Z,100158.28
2023-07-15T08:20:42.413Z,100157.41
2023-07-15T08:25:45.330Z,100149.19
2023-07-15T08:30:49.426Z,100165.78
2023-07-15T08:35:52.368Z,100156.16
2023-07-15T08:41:01.236Z,100159.09
2023-07-15T08:46:12.736Z,100156.41
2023-07-15T08:51:15.902Z,100158.06
2023-07-15T08:56:19.777Z,100161.88
2023-07-15T09:01:24.144Z,100161.94
2023-07-15T09:06:27.451Z,100155.78
2023-07-15T09:11:39.853Z,100148.06
2023-07-15T09:16:45.430Z,100152.59
2023-07-15T09:22:07.178Z,100156.97
2023-07-15T09:27:10.250Z,100155.50
2023-07-15T09:32:23.261Z,100162.25
2023-07-15T09:37:29.770Z,100154.25
2023-07-15T09:42:34.514Z,100164.25
2023-07-15T09:47:39.171Z,100160.69
2023-07-15T09:52:42.106Z,100167.59
2023-07-15T09:57:45.101Z,100166.66
2023-07-15T10:02:53.452Z,100174.38
2023-07-15T10:07:57.574Z,100162.75
2023-07-15T10:13:00.455Z,100164.28
2023-07-15T10:18:15.773Z,100158.56
2023-07-15T10:23:26.797Z,100156.47
2023-07-15T10:28:32.703Z,100161.84
2023-07-15T10:33:37.900Z,100166.34
2023-07-15T10:38:40.784Z,100169.28
2023-07-15T10:43:43.542Z,100162.44
2023-07-15T10:48:47.684Z,100163.88
2023-07-15T10:53:50.721Z,100181.03
2023-07-15T10:58:53.897Z,100175.88
2023-07-15T11:04:05.602Z,100174.50
2023-07-15T11:09:19.534Z,100182.56
2023-07-15T11:14:24.091Z,100181.44
2023-07-15T11:19:30.586Z,100187.78
2023-07-15T11:24:33.627Z,100189.50
2023-07-15T11:29:36.407Z,100176.00
2023-07-15T11:34:40.641Z,100173.41
2023-07-15T11:39:45.468Z,100195.34
2023-07-15T11:44:48.955Z,100194.41
2023-07-15T11:49:53.375Z,100205.59
2023-07-15T11:54:57.220Z,100208.06
2023-07-15T12:00:00.002Z,100198.28
2023-07-15T12:05:04.237Z,100200.19
2023-07-15T12:10:08.081Z,100215.91
2023-07-15T12:15:11.631Z,100200.31
2023-07-15T12:20:15.776Z,100192.41
2023-07-15T12:25:19.117Z,100197.47
2023-07-15T12:30:22.029Z,100190.66
2023-07-15T12:35:26.167Z,100200.75
2023-07-15T12:40:28.987Z,100212.16
2023-07-15T12:45:31.788Z,100211.41
2023-07-15T12:50:37.006Z,100206.63
2023-07-15T12:55:39.817Z,100196.81
2023-07-15T13:00:42.640Z,100204.56
2023-07-15T13:05:46.920Z,100209.41
2023-07-15T13:10:49.786Z,100202.00
2023-07-15T13:15:52.619Z,100210.44
2023-07-15T13:20:56.810Z,100226.09
2023-07-15T13:25:59.621Z,100191.91
2023-07-15T13:31:02.384Z,100200.25
2023-07-15T13:36:07.331Z,100197.97
2023-07-15T13:41:10.147Z,100193.03
2023-07-15T13:46:13.636Z,100202.16
2023-07-15T13:51:17.963Z,100191.66
2023-07-15T13:56:20.930Z,100181.31
2023-07-15T14:01:23.791Z,100199.88
2023-07-15T14:06:27.927Z,100209.56
2023-07-15T14:11:30.732Z,100197.72
2023-07-15T14:16:33.548Z,100203.69
2023-07-15T14:21:37.915Z,100204.88
2023-07-15T14:26:40.713Z,100201.09
2023-07-15T14:31:44.165Z,100186.63
2023-07-15T14:36:48.406Z,100188.63
2023-07-15T14:41:51.226Z,100181.53
2023-07-15T14:46:56.103Z,100166.72
2023-07-15T14:52:00.489Z,100171.63
2023-07-15T14:57:03.244Z,100169.72
2023-07-15T15:02:06.353Z,100152.53
2023-07-15T15:07:10.470Z,100151.81
2023-07-15T15:12:13.286Z,100141.72
2023-07-15T15:17:18.165Z,100140.41
2023-07-15T15:22:22.602Z,100142.78
2023-07-15T15:27:25.495Z,100139.34
2023-07-15T15:32:28.426Z,100134.66
2023-07-15T15:37:32.633Z,100141.69
2023-07-15T15:42:35.493Z,100141.63
2023-07-15T15:47:40.255Z,100156.88
2023-07-15T15:52:46.718Z,100163.28
2023-07-15T15:57:49.657Z,100162.44
2023-07-15T16:02:52.525Z,100161.91
2023-07-15T16:07:56.739Z,100164.72
2023-07-15T16:12:59.556Z,100154.94
2023-07-15T16:18:02.459Z,100164.63
2023-07-15T16:23:06.853Z,100154.94
2023-07-15T16:28:10.005Z,100141.47
2023-07-15T16:33:12.885Z,100132.91
2023-07-15T16:38:17.366Z,100125.97
2023-07-15T16:43:22.701Z,100124.19
2023-07-15T16:48:26.872Z,100141.88
2023-07-15T16:53:31.292Z,100153.50
2023-07-15T16:58:34.098Z,100143.88
2023-07-15T17:03:37.003Z,100167.28
2023-07-15T17:08:42.119Z,100157.94
2023-07-15T17:13:45.003Z,100172.56
2023-07-15T17:18:47.844Z,100160.25
2023-07-15T17:23:52.036Z,100160.53
2023-07-15T17:28:54.833Z,100154.84
2023-07-15T17:33:57.728Z,100153.44
2023-07-15T17:39:02.286Z,100143.25
2023-07-15T17:44:06.773Z,100140.78
2023-07-15T17:49:09.685Z,100139.06
2023-07-15T17:54:13.959Z,100128.41
2023-07-15T17:59:18.655Z,100108.16
2023-07-15T18:04:21.675Z,100089.19
2023-07-15T18:09:25.859Z,100086.75
2023-07-15T18:14:28.693Z,100087.88
2023-07-15T18:19:31.595Z,100096.16
2023-07-15T18:24:35.853Z,100085.47
2023-07-15T18:29:38.689Z,100072.59
2023-07-15T18:34:41.466Z,100076.28
2023-07-15T18:39:45.671Z,100065.03
2023-07-15T18:44:48.987Z,100055.50
2023-07-15T18:49:51.930Z,100043.91
2023-07-15T18:54:56.159Z,100044.50
2023-07-15T18:59:58.956Z,100036.09
2023-07-15T19:05:02.178Z,100035.97
2023-07-15T19:10:08.532Z,100046.91
2023-07-15T19:15:12.233Z,100044.13
2023-07-15T19:20:15.053Z,100035.63
2023-07-15T19:25:19.635Z,100031.53
2023-07-15T19:30:22.658Z,100032.66
2023-07-15T19:35:26.072Z,100038.31
2023-07-15T19:40:30.321Z,100035.69
2023-07-15T19:45:33.494Z,100049.88
2023-07-15T19:50:36.469Z,100059.75
2023-07-15T19:55:40.728Z,100059.09
2023-07-15T20:00:43.715Z,100082.84
2023-07-15T20:05:46.601Z,100083.59
2023-07-15T20:10:50.765Z,100086.50
2023-07-15T20:15:53.554Z,100107.00
2023-07-15T20:20:56.428Z,100103.53
2023-07-15T20:26:00.679Z,100115.22
2023-07-15T20:31:04.198Z,100132.94
2023-07-15T20:36:07.030Z,100136.53
2023-07-15T20:41:11.269Z,100141.06
2023-07-15T20:46:14.653Z,100128.63
2023-07-15T20:51:17.722Z,100134.94
2023-07-15T21:02:40.376Z,100130.41
2023-07-15T21:07:43.330Z,100130.47
2023-07-15T21:12:48.853Z,100134.00
2023-07-15T21:17:53.062Z,100131.38
2023-07-15T21:22:56.200Z,100145.53
2023-07-15T21:27:59.044Z,100151.06
2023-07-15T21:33:03.554Z,100220.88
2023-07-15T21:38:06.396Z,100232.81
2023-07-15T21:43:09.209Z,100261.97
2023-07-15T21:48:15.385Z,100274.38
2023-07-15T21:53:19.668Z,100288.50
2023-07-15T21:58:22.469Z,100313.88
2023-07-15T22:03:27.262Z,100339.53
2023-07-15T22:08:30.226Z,100331.44
2023-07-15T22:13:33.005Z,100363.75
2023-07-15T22:18:41.216Z,100344.19
2023-07-15T22:23:44.443Z,100363.41
2023-07-15T22:28:48.022Z,100381.81
2023-07-15T22:33:52.209Z,100368.91
2023-07-15T22:38:55.263Z,100356.31
2023-07-15T22:43:58.081Z,100341.03
2023-07-15T22:49:02.596Z,100320.31
2023-07-15T22:54:05.457Z,100329.06
2023-07-15T22:59:08.285Z,100336.06
2023-07-15T23:04:12.420Z,100336.69
2023-07-15T23:09:15.392Z,100352.84
2023-07-15T23:14:18.639Z,100352.94
2023-07-15T23:19:22.814Z,100400.19
2023-07-15T23:24:25.640Z,100388.41
2023-07-15T23:29:28.567Z,100403.94
2023-07-15T23:34:32.734Z,100399.09
2023-07-15T23:39:35.518Z,100395.06
2023-07-15T23:44:38.333Z,100400.00
2023-07-15T23:49:42.480Z,100411.16
2023-07-15T23:54:45.272Z,100437.03
2023-07-15T23:59:48.046Z,100449.13
